createdAt,value
2022-10-23T00:03:36.957Z,94
2022-10-23T00:13:37.440Z,94
2022-10-23T00:23:37.819Z,94
2022-10-23T00:33:38.334Z,94
2022-10-23T00:43:39.158Z,95
2022-10-23T00:53:39.723Z,95
2022-10-23T01:03:40.784Z,95
2022-10-23T01:13:41.815Z,96
2022-10-23T01:23:42.768Z,96
2022-10-23T01:33:43.292Z,95
2022-10-23T01:43:43.596Z,95
2022-10-23T01:53:44.569Z,96
2022-10-23T02:03:45.662Z,95
2022-10-23T02:13:46.334Z,95
2022-10-23T02:33:47.813Z,95
2022-10-23T02:43:48.460Z,96
2022-10-23T03:03:50.128Z,96
2022-10-23T03:13:51.037Z,96
2022-10-23T03:23:52.036Z,97
2022-10-23T03:33:52.313Z,97
2022-10-23T03:43:52.522Z,97
2022-10-23T03:53:53.342Z,97
2022-10-23T04:03:53.765Z,97
2022-10-23T04:13:54.138Z,98
2022-10-23T04:23:54.899Z,98
2022-10-23T04:33:55.205Z,98
2022-10-23T04:43:55.346Z,98
2022-10-23T04:53:56.329Z,98
2022-10-23T05:03:56.830Z,98
2022-10-23T05:13:57.016Z,97
2022-10-23T05:23:57.696Z,97
2022-10-23T05:33:58.756Z,97
2022-10-23T05:43:59.185Z,97
2022-10-23T05:54:00.000Z,97
2022-10-23T06:04:00.226Z,97
2022-10-23T06:24:00.593Z,97
2022-10-23T06:34:01.064Z,96
2022-10-23T06:44:01.730Z,96
2022-10-23T06:54:02.305Z,95
2022-10-23T07:04:02.607Z,94
2022-10-23T07:14:03.047Z,94
2022-10-23T07:24:03.590Z,94
2022-10-23T07:34:04.404Z,94
2022-10-23T07:44:04.794Z,94
2022-10-23T07:54:05.086Z,93
2022-10-23T08:04:06.023Z,92
2022-10-23T08:14:06.806Z,90
2022-10-23T08:24:07.082Z,88
2022-10-23T08:34:07.392Z,87
2022-10-23T08:54:08.343Z,84
2022-10-23T09:04:08.487Z,83
2022-10-23T09:14:08.688Z,83
2022-10-23T09:24:09.733Z,82
2022-10-23T09:34:11.746Z,83
2022-10-23T09:44:10.697Z,84
2022-10-23T09:54:10.917Z,85
2022-10-23T10:04:11.692Z,84
2022-10-23T10:14:12.211Z,83
2022-10-23T10:24:12.829Z,80
2022-10-23T10:34:13.659Z,78
2022-10-23T10:44:14.165Z,77
2022-10-23T10:54:14.864Z,76
2022-10-23T11:04:15.770Z,75
2022-10-23T11:14:16.671Z,74
2022-10-23T11:34:18.320Z,74
2022-10-23T11:44:18.940Z,73
2022-10-23T12:04:20.754Z,74
2022-10-23T12:14:21.583Z,74
2022-10-23T12:24:22.190Z,74
2022-10-23T12:34:22.663Z,74
2022-10-23T12:44:23.490Z,69
2022-10-23T12:54:24.062Z,69
2022-10-23T13:04:24.374Z,68
2022-10-23T13:14:24.906Z,68
2022-10-23T13:24:25.292Z,68
2022-10-23T13:34:25.896Z,68
2022-10-23T13:44:26.506Z,69
2022-10-23T14:04:27.877Z,69
2022-10-23T14:14:27.953Z,69
2022-10-23T14:24:28.217Z,69
2022-10-23T14:34:28.349Z,69
2022-10-23T14:44:28.796Z,69
2022-10-23T15:04:29.542Z,70
2022-10-23T15:14:30.093Z,70
2022-10-23T15:24:30.979Z,70
2022-10-23T15:34:31.232Z,71
2022-10-23T15:44:31.669Z,74
2022-10-23T15:54:32.891Z,80
2022-10-23T16:04:33.300Z,82
2022-10-23T16:14:33.425Z,83
2022-10-23T16:24:34.340Z,85
2022-10-23T16:34:35.063Z,85
2022-10-23T16:44:35.206Z,89
2022-10-23T16:54:35.494Z,91
2022-10-23T17:04:36.529Z,92
2022-10-23T17:14:37.603Z,93
2022-10-23T17:24:38.191Z,93
2022-10-23T17:34:39.147Z,95
2022-10-23T17:54:39.895Z,96
2022-10-23T18:04:40.778Z,97
2022-10-23T18:14:41.147Z,97
2022-10-23T18:24:41.543Z,96
2022-10-23T18:34:42.062Z,95
2022-10-23T18:44:42.539Z,96
2022-10-23T18:54:43.304Z,96
2022-10-23T19:04:44.283Z,95
2022-10-23T19:14:44.445Z,95
2022-10-23T19:24:45.199Z,93
2022-10-23T19:44:46.210Z,90
2022-10-23T19:54:46.843Z,88
2022-10-23T20:04:47.170Z,88
2022-10-23T20:24:48.094Z,86
2022-10-23T20:44:48.919Z,85
2022-10-23T20:54:49.347Z,85
2022-10-23T21:04:50.108Z,86
2022-10-23T21:14:50.560Z,86
2022-10-23T21:24:50.801Z,89
2022-10-23T21:34:51.748Z,92
2022-10-23T21:37:30.116Z,92
2022-10-23T21:55:00.149Z,92
2022-10-23T22:05:00.572Z,94
2022-10-23T22:15:01.333Z,93
2022-10-23T22:25:01.584Z,92
2022-10-23T22:35:02.114Z,91
2022-10-23T22:45:03.130Z,91
2022-10-23T22:55:03.745Z,91
2022-10-23T23:05:04.426Z,90
2022-10-23T23:15:04.943Z,90
2022-10-23T23:35:06.155Z,88
2022-10-23T23:45:14.083Z,88
2022-10-23T23:55:08.095Z,87
